Аэропорт: Нариманово. Астрахань

ICAO: URWA

METAR:
2018/07/16 20:00
URWA 162000Z 26006MPS 9999 SCT040CB 24/17 Q1001 R27/010070 TEMPO VRB10G18MPS 3000 -TSRA SQ RMK QFE752/1003
METAR:
2018/07/09 12:30
TAF TAF URWA 091100Z 0912/0924 22004G09MPS 9999 SCT030 
      TEMPO 0912/0918 17006G12MPS SCT030CB